createdAt,value
2023-06-18T00:00:43.165Z,98713.00
2023-06-18T00:03:10.816Z,98701.69
2023-06-18T00:05:38.584Z,98699.56
2023-06-18T00:08:06.965Z,98692.72
2023-06-18T00:10:34.545Z,98701.63
2023-06-18T00:13:02.186Z,98689.88
2023-06-18T00:15:29.677Z,98696.94
2023-06-18T00:17:57.327Z,98692.63
2023-06-18T00:20:24.986Z,98696.94
2023-06-18T00:22:54.413Z,98696.84
2023-06-18T00:25:22.441Z,98692.28
2023-06-18T00:27:50.079Z,98694.06
2023-06-18T00:30:17.652Z,98690.19
2023-06-18T00:32:45.865Z,98689.03
2023-06-18T00:35:15.735Z,98689.91
2023-06-18T00:37:45.126Z,98690.06
2023-06-18T00:40:13.691Z,98690.56
2023-06-18T00:42:41.660Z,98701.09
2023-06-18T00:45:13.286Z,98693.88
2023-06-18T00:47:43.660Z,98701.13
2023-06-18T00:50:17.387Z,98700.69
2023-06-18T00:52:48.643Z,98705.28
2023-06-18T00:55:17.657Z,98695.66
2023-06-18T00:58:00.951Z,98698.88
2023-06-18T01:00:35.567Z,98689.06
2023-06-18T01:03:06.356Z,98680.28
2023-06-18T01:05:35.812Z,98687.69
2023-06-18T01:08:08.932Z,98692.94
2023-06-18T01:10:40.688Z,98688.28
2023-06-18T01:13:10.382Z,98685.56
2023-06-18T01:15:39.654Z,98690.06
2023-06-18T01:18:08.754Z,98681.88
2023-06-18T01:20:42.988Z,98691.31
2023-06-18T01:23:18.370Z,98688.47
2023-06-18T01:25:47.665Z,98677.56
2023-06-18T01:28:16.658Z,98690.22
2023-06-18T01:30:44.271Z,98696.03
2023-06-18T01:33:14.044Z,98687.03
2023-06-18T01:35:42.273Z,98680.94
2023-06-18T01:38:29.138Z,98680.47
2023-06-18T01:41:14.245Z,98691.88
2023-06-18T01:43:53.874Z,98689.78
2023-06-18T01:46:25.405Z,98692.34
2023-06-18T01:48:58.037Z,98690.66
2023-06-18T01:51:28.271Z,98695.44
2023-06-18T01:53:58.519Z,98699.53
2023-06-18T01:56:30.579Z,98696.94
2023-06-18T01:58:58.196Z,98706.63
2023-06-18T02:01:27.714Z,98702.06
2023-06-18T02:03:55.568Z,98701.16
2023-06-18T02:06:23.179Z,98703.69
2023-06-18T02:08:50.711Z,98707.59
2023-06-18T02:11:18.300Z,98707.97
2023-06-18T02:13:46.141Z,98706.94
2023-06-18T02:16:13.736Z,98702.03
2023-06-18T02:18:41.688Z,98710.25
2023-06-18T02:21:09.710Z,98710.94
2023-06-18T02:23:37.248Z,98702.88
2023-06-18T02:26:04.952Z,98700.50
2023-06-18T02:28:32.544Z,98712.22
2023-06-18T02:31:00.213Z,98706.00
2023-06-18T02:33:28.039Z,98719.75
2023-06-18T02:35:55.536Z,98714.22
2023-06-18T02:38:23.060Z,98713.84
2023-06-18T02:40:50.671Z,98724.31
2023-06-18T02:43:18.450Z,98727.06
2023-06-18T02:45:46.078Z,98731.41
2023-06-18T02:48:14.656Z,98731.16
2023-06-18T02:50:42.328Z,98737.63
2023-06-18T02:53:09.937Z,98735.72
2023-06-18T02:55:38.234Z,98740.28
2023-06-18T02:58:10.487Z,98746.31
2023-06-18T03:00:38.204Z,98740.84
2023-06-18T03:03:07.347Z,98741.03
2023-06-18T03:05:37.764Z,98746.63
2023-06-18T03:08:06.431Z,98739.22
2023-06-18T03:10:34.679Z,98753.16
2023-06-18T03:13:02.233Z,98744.22
2023-06-18T03:15:44.618Z,98742.28
2023-06-18T03:18:13.802Z,98744.16
2023-06-18T03:20:43.824Z,98747.56
2023-06-18T03:23:11.382Z,98737.84
2023-06-18T03:25:42.388Z,98746.34
2023-06-18T03:28:15.339Z,98750.13
2023-06-18T03:30:43.788Z,98744.59
2023-06-18T03:33:11.757Z,98749.22
2023-06-18T03:35:41.306Z,98748.28
2023-06-18T03:38:09.344Z,98749.66
2023-06-18T03:40:37.112Z,98746.63
2023-06-18T03:43:04.622Z,98754.19
2023-06-18T03:45:32.210Z,98759.38
2023-06-18T03:48:00.534Z,98748.91
2023-06-18T03:50:34.610Z,98761.31
2023-06-18T03:53:02.449Z,98760.34
2023-06-18T03:55:30.084Z,98762.16
2023-06-18T03:57:59.054Z,98765.00
2023-06-18T04:00:26.973Z,98762.50
2023-06-18T04:02:54.668Z,98771.00
2023-06-18T04:05:22.376Z,98759.91
2023-06-18T04:07:49.932Z,98759.66
2023-06-18T04:10:18.510Z,98763.84
2023-06-18T04:12:46.267Z,98764.63
2023-06-18T04:15:13.914Z,98769.63
2023-06-18T04:17:43.080Z,98768.28
2023-06-18T04:20:14.002Z,98771.84
2023-06-18T04:22:41.789Z,98776.03
2023-06-18T04:25:12.077Z,98770.22
2023-06-18T04:27:41.026Z,98777.22
2023-06-18T04:30:09.686Z,98770.66
2023-06-18T04:32:39.379Z,98779.22
2023-06-18T04:35:07.541Z,98777.03
2023-06-18T04:37:35.220Z,98776.56
2023-06-18T04:40:05.468Z,98786.13
2023-06-18T04:42:34.552Z,98785.34
2023-06-18T04:45:02.812Z,98792.59
2023-06-18T04:47:30.962Z,98788.56
2023-06-18T04:49:58.673Z,98785.84
2023-06-18T04:52:26.315Z,98799.34
2023-06-18T04:54:54.695Z,98791.75
2023-06-18T04:57:23.478Z,98796.50
2023-06-18T04:59:51.525Z,98796.88
2023-06-18T05:02:19.339Z,98793.63
2023-06-18T05:04:46.981Z,98800.28
2023-06-18T05:07:16.908Z,98800.50
2023-06-18T05:09:44.533Z,98805.56
2023-06-18T05:12:12.413Z,98809.44
2023-06-18T05:14:40.016Z,98813.84
2023-06-18T05:17:07.704Z,98814.91
2023-06-18T05:19:35.242Z,98810.72
2023-06-18T05:22:03.228Z,98822.53
2023-06-18T05:24:31.695Z,98816.88
2023-06-18T05:26:59.316Z,98821.56
2023-06-18T05:29:26.898Z,98818.94
2023-06-18T05:31:54.915Z,98824.41
2023-06-18T05:34:29.896Z,98826.03
2023-06-18T05:36:57.709Z,98830.00
2023-06-18T05:39:25.553Z,98829.00
2023-06-18T05:41:53.567Z,98830.47
2023-06-18T05:44:23.516Z,98836.25
2023-06-18T05:46:51.178Z,98840.81
2023-06-18T05:49:19.043Z,98843.72
2023-06-18T05:51:47.939Z,98842.16
2023-06-18T05:54:15.657Z,98843.19
2023-06-18T05:56:43.206Z,98842.66
2023-06-18T05:59:11.606Z,98855.16
2023-06-18T06:01:45.268Z,98842.34
2023-06-18T06:04:14.088Z,98850.16
2023-06-18T06:06:41.794Z,98849.94
2023-06-18T06:09:10.394Z,98849.00
2023-06-18T06:11:40.990Z,98855.81
2023-06-18T06:14:12.259Z,98856.28
2023-06-18T06:16:41.053Z,98852.19
2023-06-18T06:19:08.741Z,98852.47
2023-06-18T06:21:36.316Z,98844.00
2023-06-18T06:24:04.268Z,98848.16
2023-06-18T06:26:32.987Z,98847.25
2023-06-18T06:29:02.103Z,98849.78
2023-06-18T06:31:29.667Z,98850.66
2023-06-18T06:33:57.612Z,98846.09
2023-06-18T06:36:26.681Z,98853.75
2023-06-18T06:38:55.444Z,98857.19
2023-06-18T06:41:24.175Z,98865.66
2023-06-18T06:43:52.280Z,98859.53
2023-06-18T06:46:19.852Z,98860.63
2023-06-18T06:49:08.502Z,98864.03
2023-06-18T06:51:59.269Z,98859.25
2023-06-18T06:54:27.775Z,98862.03
2023-06-18T06:56:55.433Z,98859.34
2023-06-18T06:59:23.296Z,98857.69
2023-06-18T07:01:50.903Z,98856.09
2023-06-18T07:04:18.469Z,98858.00
2023-06-18T07:06:46.169Z,98856.25
2023-06-18T07:09:13.787Z,98857.97
2023-06-18T07:11:41.782Z,98853.22
2023-06-18T07:14:09.597Z,98858.19
2023-06-18T07:16:37.142Z,98858.03
2023-06-18T07:19:05.081Z,98856.06
2023-06-18T07:21:32.578Z,98853.47
2023-06-18T07:24:00.176Z,98858.09
2023-06-18T07:26:27.843Z,98856.97
2023-06-18T07:28:55.444Z,98847.44
2023-06-18T07:31:22.907Z,98857.84
2023-06-18T07:33:50.382Z,98853.72
2023-06-18T07:36:17.890Z,98856.63
2023-06-18T07:38:45.460Z,98851.28
2023-06-18T07:41:12.988Z,98851.91
2023-06-18T07:43:42.005Z,98838.41
2023-06-18T07:46:09.754Z,98850.94
2023-06-18T07:48:38.836Z,98840.28
2023-06-18T07:51:07.028Z,98848.38
2023-06-18T07:53:34.582Z,98840.09
2023-06-18T07:56:02.136Z,98849.28
2023-06-18T07:58:29.726Z,98851.56
2023-06-18T08:00:57.303Z,98854.88
2023-06-18T08:03:24.846Z,98857.69
2023-06-18T08:05:55.531Z,98852.81
2023-06-18T08:08:23.055Z,98846.03
2023-06-18T08:10:51.742Z,98845.19
2023-06-18T08:13:19.313Z,98847.19
2023-06-18T08:15:47.173Z,98852.34
2023-06-18T08:18:14.908Z,98845.78
2023-06-18T08:20:42.623Z,98851.00
2023-06-18T08:23:10.468Z,98850.31
2023-06-18T08:25:37.927Z,98847.84
2023-06-18T08:28:05.436Z,98850.28
2023-06-18T08:30:33.403Z,98853.78
2023-06-18T08:33:00.938Z,98848.13
2023-06-18T08:35:28.517Z,98844.78
2023-06-18T08:37:56.017Z,98852.44
2023-06-18T08:40:28.107Z,98854.75
2023-06-18T08:43:06.686Z,98849.09
2023-06-18T08:45:35.134Z,98849.34
2023-06-18T08:48:19.400Z,98837.56
2023-06-18T08:51:00.578Z,98850.22
2023-06-18T08:53:51.978Z,98851.19
2023-06-18T08:56:22.867Z,98845.91
2023-06-18T08:58:54.122Z,98854.78
2023-06-18T09:01:21.944Z,98848.81
2023-06-18T09:03:50.881Z,98849.59
2023-06-18T09:06:19.407Z,98849.41
2023-06-18T09:08:47.837Z,98856.00
2023-06-18T09:11:15.830Z,98850.28
2023-06-18T09:13:44.499Z,98850.78
2023-06-18T09:16:12.976Z,98853.69
2023-06-18T09:18:40.894Z,98855.06
2023-06-18T09:21:08.677Z,98848.66
2023-06-18T09:23:37.611Z,98850.56
2023-06-18T09:26:05.167Z,98855.09
2023-06-18T09:28:32.771Z,98859.72
2023-06-18T09:31:02.646Z,98857.88
2023-06-18T09:33:37.792Z,98863.56
2023-06-18T09:36:09.845Z,98857.72
2023-06-18T09:38:42.232Z,98866.03
2023-06-18T09:41:17.656Z,98856.84
2023-06-18T09:43:51.818Z,98852.50
2023-06-18T09:46:23.471Z,98862.69
2023-06-18T09:48:51.434Z,98854.16
2023-06-18T09:51:26.515Z,98861.28
2023-06-18T09:53:59.786Z,98849.25
2023-06-18T09:56:27.340Z,98844.25
2023-06-18T09:58:54.871Z,98857.28
2023-06-18T10:01:22.812Z,98859.25
2023-06-18T10:03:50.621Z,98856.81
2023-06-18T10:06:23.411Z,98849.63
2023-06-18T10:08:56.770Z,98855.28
2023-06-18T10:11:25.668Z,98847.31
2023-06-18T10:13:59.368Z,98852.03
2023-06-18T10:16:30.038Z,98850.53
2023-06-18T10:19:07.451Z,98850.59
2023-06-18T10:21:38.251Z,98849.22
2023-06-18T10:24:19.674Z,98861.16
2023-06-18T10:26:48.147Z,98846.56
2023-06-18T10:29:15.684Z,98855.53
2023-06-18T10:31:44.023Z,98858.00
2023-06-18T10:34:13.642Z,98861.56
2023-06-18T10:36:41.776Z,98856.03
2023-06-18T10:39:22.075Z,98863.03
2023-06-18T10:41:55.470Z,98865.13
2023-06-18T10:44:51.556Z,98860.59
2023-06-18T10:47:25.069Z,98865.16
2023-06-18T10:50:08.446Z,98853.19
2023-06-18T10:52:37.812Z,98862.94
2023-06-18T10:55:14.391Z,98857.06
2023-06-18T10:57:46.914Z,98866.13
2023-06-18T11:00:22.075Z,98864.63
2023-06-18T11:02:58.373Z,98865.44
2023-06-18T11:05:37.839Z,98865.59
2023-06-18T11:08:08.233Z,98870.66
2023-06-18T11:11:14.232Z,98866.28
2023-06-18T11:13:51.972Z,98858.53
2023-06-18T11:16:19.616Z,98865.56
2023-06-18T11:18:47.723Z,98858.91
2023-06-18T11:21:20.206Z,98859.09
2023-06-18T11:23:49.824Z,98863.31
2023-06-18T11:26:21.106Z,98856.50
2023-06-18T11:28:50.703Z,98855.00
2023-06-18T11:31:18.320Z,98846.84
2023-06-18T11:33:50.128Z,98853.19
2023-06-18T11:36:20.588Z,98841.53
2023-06-18T11:38:52.934Z,98836.63
2023-06-18T11:41:22.751Z,98841.53
2023-06-18T11:43:53.021Z,98831.91
2023-06-18T11:46:35.549Z,98828.44
2023-06-18T11:49:03.579Z,98840.06
2023-06-18T11:51:32.594Z,98838.88
2023-06-18T11:54:00.895Z,98840.03
2023-06-18T11:56:31.174Z,98834.00
2023-06-18T11:58:59.807Z,98835.78
2023-06-18T12:01:32.100Z,98823.19
2023-06-18T12:04:07.020Z,98825.16
2023-06-18T12:06:36.038Z,98822.53
2023-06-18T12:09:11.518Z,98828.75
2023-06-18T12:12:08.643Z,98821.50
2023-06-18T12:14:54.692Z,98818.34
2023-06-18T12:17:32.379Z,98812.88
2023-06-18T12:20:06.811Z,98816.59
2023-06-18T12:22:36.001Z,98810.16
2023-06-18T12:25:04.313Z,98808.09
2023-06-18T12:27:32.017Z,98813.44
2023-06-18T12:30:00.867Z,98812.59
2023-06-18T12:32:28.526Z,98820.13
2023-06-18T12:34:56.718Z,98820.19
2023-06-18T12:37:34.350Z,98818.28
2023-06-18T12:40:09.331Z,98811.28
2023-06-18T12:42:37.745Z,98810.66
2023-06-18T12:45:06.218Z,98803.34
2023-06-18T12:47:40.082Z,98810.44
2023-06-18T12:50:08.265Z,98813.75
2023-06-18T12:52:46.516Z,98810.63
2023-06-18T12:55:16.091Z,98797.13
2023-06-18T12:57:45.202Z,98809.25
2023-06-18T13:00:16.195Z,98815.25
2023-06-18T13:02:47.721Z,98800.41
2023-06-18T13:05:15.958Z,98795.63
2023-06-18T13:07:51.853Z,98795.19
2023-06-18T13:10:22.819Z,98783.78
2023-06-18T13:12:50.445Z,98792.97
2023-06-18T13:15:18.278Z,98789.03
2023-06-18T13:17:46.130Z,98792.00
2023-06-18T13:20:14.205Z,98794.91
2023-06-18T13:22:41.821Z,98797.00
2023-06-18T13:25:10.351Z,98794.13
2023-06-18T13:27:37.936Z,98797.94
2023-06-18T13:30:06.226Z,98789.16
2023-06-18T13:32:33.738Z,98798.88
2023-06-18T13:35:01.287Z,98791.66
2023-06-18T13:37:28.982Z,98799.47
2023-06-18T13:39:56.569Z,98795.94
2023-06-18T13:42:24.217Z,98783.47
2023-06-18T13:44:52.055Z,98784.47
2023-06-18T13:47:19.696Z,98776.81
2023-06-18T13:49:48.505Z,98786.84
2023-06-18T13:52:16.165Z,98793.38
2023-06-18T13:54:43.743Z,98786.47
2023-06-18T13:57:11.635Z,98780.81
2023-06-18T13:59:39.413Z,98781.28
2023-06-18T14:02:07.642Z,98787.00
2023-06-18T14:04:36.892Z,98785.00
2023-06-18T14:07:05.760Z,98783.50
2023-06-18T14:09:33.368Z,98783.53
2023-06-18T14:12:01.208Z,98777.56
2023-06-18T14:14:28.725Z,98776.94
2023-06-18T14:16:56.828Z,98777.56
2023-06-18T14:19:26.123Z,98778.81
2023-06-18T14:21:54.126Z,98777.28
2023-06-18T14:24:21.847Z,98779.47
2023-06-18T14:26:49.624Z,98781.16
2023-06-18T14:29:17.429Z,98780.25
2023-06-18T14:31:45.140Z,98772.84
2023-06-18T14:34:15.214Z,98776.03
2023-06-18T14:36:42.726Z,98780.25
2023-06-18T14:39:10.302Z,98767.16
2023-06-18T14:41:37.973Z,98770.91
2023-06-18T14:44:05.740Z,98776.09
2023-06-18T14:46:33.345Z,98775.09
2023-06-18T14:49:00.876Z,98779.59
2023-06-18T14:51:28.437Z,98780.31
2023-06-18T14:54:03.388Z,98780.09
2023-06-18T14:56:31.910Z,98772.19
2023-06-18T14:58:59.433Z,98775.53
2023-06-18T15:01:28.924Z,98774.00
2023-06-18T15:03:56.827Z,98778.78
2023-06-18T15:06:24.664Z,98770.31
2023-06-18T15:08:52.258Z,98766.63
2023-06-18T15:11:19.923Z,98768.41
2023-06-18T15:13:47.507Z,98774.56
2023-06-18T15:16:15.044Z,98770.88
2023-06-18T15:18:42.571Z,98771.72
2023-06-18T15:21:10.204Z,98766.50
2023-06-18T15:23:37.886Z,98756.94
2023-06-18T15:26:08.161Z,98757.50
2023-06-18T15:28:35.817Z,98762.22
2023-06-18T15:31:03.365Z,98763.78
2023-06-18T15:33:31.011Z,98755.44
2023-06-18T15:35:58.540Z,98758.50
2023-06-18T15:38:25.996Z,98755.31
2023-06-18T15:40:54.424Z,98759.84
2023-06-18T15:43:23.489Z,98750.28
2023-06-18T15:45:51.388Z,98759.97
2023-06-18T15:48:19.522Z,98757.31
2023-06-18T15:50:48.967Z,98750.88
2023-06-18T15:53:19.650Z,98751.31
2023-06-18T15:55:48.559Z,98757.47
2023-06-18T15:58:19.599Z,98750.06
2023-06-18T16:00:47.325Z,98751.84
2023-06-18T16:03:14.993Z,98746.16
2023-06-18T16:05:42.942Z,98749.19
2023-06-18T16:08:10.656Z,98756.19
2023-06-18T16:10:38.923Z,98752.66
2023-06-18T16:13:07.467Z,98750.25
2023-06-18T16:15:35.131Z,98750.94
2023-06-18T16:18:08.146Z,98758.19
2023-06-18T16:20:37.764Z,98752.22
2023-06-18T16:23:05.684Z,98751.84
2023-06-18T16:25:33.682Z,98755.44
2023-06-18T16:28:01.773Z,98753.06
2023-06-18T16:30:31.217Z,98756.50
2023-06-18T16:33:02.044Z,98764.97
2023-06-18T16:35:29.952Z,98762.66
2023-06-18T16:37:57.616Z,98764.47
2023-06-18T16:40:27.458Z,98766.41
2023-06-18T16:42:55.247Z,98761.19
2023-06-18T16:45:23.155Z,98765.69
2023-06-18T16:47:51.036Z,98763.34
2023-06-18T16:50:18.717Z,98764.56
2023-06-18T16:52:46.257Z,98762.47
2023-06-18T16:55:13.759Z,98764.31
2023-06-18T16:57:41.305Z,98766.75
2023-06-18T17:00:09.345Z,98768.75
2023-06-18T17:02:37.754Z,98773.19
2023-06-18T17:05:06.180Z,98770.84
2023-06-18T17:07:34.814Z,98781.75
2023-06-18T17:10:02.372Z,98770.06
2023-06-18T17:12:29.989Z,98774.00
2023-06-18T17:14:57.558Z,98778.88
2023-06-18T17:17:27.629Z,98774.22
2023-06-18T17:19:55.197Z,98779.13
2023-06-18T17:22:22.792Z,98777.94
2023-06-18T17:24:50.355Z,98779.91
2023-06-18T17:27:17.962Z,98781.97
2023-06-18T17:29:46.579Z,98776.44
2023-06-18T17:32:14.150Z,98767.94
2023-06-18T17:34:41.689Z,98768.06
2023-06-18T17:37:11.342Z,98768.16
2023-06-18T17:39:39.005Z,98772.81
2023-06-18T17:42:06.824Z,98774.78
2023-06-18T17:44:34.496Z,98774.28
2023-06-18T17:47:02.064Z,98769.72
2023-06-18T17:49:29.541Z,98776.97
2023-06-18T17:51:57.203Z,98772.34
2023-06-18T17:54:25.022Z,98769.47
2023-06-18T17:56:52.561Z,98777.78
2023-06-18T17:59:20.162Z,98772.28
2023-06-18T18:01:49.610Z,98773.97
2023-06-18T18:04:17.330Z,98771.91
2023-06-18T18:06:46.581Z,98771.38
2023-06-18T18:09:14.275Z,98783.06
2023-06-18T18:11:41.894Z,98781.56
2023-06-18T18:14:09.634Z,98784.19
2023-06-18T18:16:37.647Z,98791.25
2023-06-18T18:19:05.341Z,98794.53
2023-06-18T18:21:32.894Z,98794.34
2023-06-18T18:24:00.504Z,98792.75
2023-06-18T18:26:39.099Z,98792.31
2023-06-18T18:29:14.584Z,98792.59
2023-06-18T18:31:42.125Z,98790.50
2023-06-18T18:34:11.706Z,98798.22
2023-06-18T18:36:40.206Z,98792.16
2023-06-18T18:39:08.340Z,98792.88
2023-06-18T18:41:36.013Z,98798.59
2023-06-18T18:44:04.233Z,98801.13
2023-06-18T18:46:32.360Z,98810.97
2023-06-18T18:49:00.783Z,98804.09
2023-06-18T18:51:28.373Z,98805.94
2023-06-18T18:53:56.243Z,98811.94
2023-06-18T18:56:24.018Z,98822.09
2023-06-18T18:58:51.541Z,98818.31
2023-06-18T19:01:19.156Z,98832.94
2023-06-18T19:03:46.986Z,98820.31
2023-06-18T19:06:14.697Z,98834.59
2023-06-18T19:08:42.683Z,98838.28
2023-06-18T19:11:13.499Z,98840.34
2023-06-18T19:13:41.414Z,98847.06
2023-06-18T19:16:09.354Z,98852.13
2023-06-18T19:18:37.991Z,98850.22
2023-06-18T19:21:05.953Z,98847.53
2023-06-18T19:23:33.884Z,98846.53
2023-06-18T19:26:02.134Z,98849.59
2023-06-18T19:28:30.003Z,98844.66
2023-06-18T19:30:57.795Z,98854.59
2023-06-18T19:33:25.388Z,98857.84
2023-06-18T19:35:53.306Z,98851.53
2023-06-18T19:38:20.955Z,98845.47
2023-06-18T19:40:50.892Z,98856.47
2023-06-18T19:43:22.373Z,98856.34
2023-06-18T19:45:50.207Z,98858.31
2023-06-18T19:48:18.148Z,98852.06
2023-06-18T19:50:45.991Z,98860.22
2023-06-18T19:53:13.591Z,98860.38
2023-06-18T19:55:42.039Z,98865.09
2023-06-18T19:58:09.661Z,98862.19
2023-06-18T20:00:41.662Z,98872.06
2023-06-18T20:03:09.519Z,98866.78
2023-06-18T20:05:38.212Z,98877.91
2023-06-18T20:08:05.885Z,98875.03
2023-06-18T20:10:34.016Z,98876.28
2023-06-18T20:13:01.672Z,98875.47
2023-06-18T20:15:30.791Z,98874.69
2023-06-18T20:17:58.496Z,98875.50
2023-06-18T20:20:26.730Z,98870.69
2023-06-18T20:22:54.533Z,98873.38
2023-06-18T20:25:22.653Z,98875.31
2023-06-18T20:27:50.299Z,98879.31
2023-06-18T20:30:18.877Z,98875.88
2023-06-18T20:32:46.555Z,98875.06
2023-06-18T20:35:14.143Z,98871.00
2023-06-18T20:37:41.713Z,98870.16
2023-06-18T20:40:09.733Z,98871.00
2023-06-18T20:42:37.310Z,98871.06
2023-06-18T20:45:05.351Z,98874.81
2023-06-18T20:47:33.032Z,98877.94
2023-06-18T20:50:00.874Z,98877.63
2023-06-18T20:52:29.180Z,98873.00
2023-06-18T20:54:56.873Z,98872.03
2023-06-18T20:57:24.539Z,98866.09
2023-06-18T20:59:53.177Z,98871.59
2023-06-18T21:02:23.723Z,98874.66
2023-06-18T21:04:52.702Z,98868.94
2023-06-18T21:07:21.417Z,98865.84
2023-06-18T21:09:49.213Z,98874.00
2023-06-18T21:12:16.805Z,98866.28
2023-06-18T21:14:44.441Z,98869.78
2023-06-18T21:17:12.103Z,98872.31
2023-06-18T21:19:39.786Z,98867.69
2023-06-18T21:22:07.285Z,98863.22
2023-06-18T21:24:34.874Z,98865.44
2023-06-18T21:27:02.460Z,98874.81
2023-06-18T21:29:29.958Z,98877.53
2023-06-18T21:31:59.097Z,98871.38
2023-06-18T21:34:26.828Z,98873.91
2023-06-18T21:36:54.474Z,98865.44
2023-06-18T21:39:22.060Z,98868.53
2023-06-18T21:41:49.887Z,98875.19
2023-06-18T21:44:17.374Z,98872.41
2023-06-18T21:46:45.530Z,98871.84
2023-06-18T21:49:13.193Z,98866.56
2023-06-18T21:51:40.751Z,98867.44
2023-06-18T21:54:08.337Z,98874.47
2023-06-18T21:56:35.872Z,98877.06
2023-06-18T21:59:03.439Z,98876.53
2023-06-18T22:01:34.017Z,98881.63
2023-06-18T22:04:01.645Z,98871.72
2023-06-18T22:06:29.388Z,98874.38
2023-06-18T22:08:56.902Z,98884.44
2023-06-18T22:11:24.430Z,98877.69
2023-06-18T22:13:51.989Z,98881.94
2023-06-18T22:16:19.873Z,98880.50
2023-06-18T22:18:48.070Z,98872.38
2023-06-18T22:21:15.882Z,98868.28
2023-06-18T22:23:44.636Z,98871.50
2023-06-18T22:26:12.224Z,98861.06
2023-06-18T22:28:39.860Z,98869.06
2023-06-18T22:31:07.450Z,98866.75
2023-06-18T22:33:34.968Z,98872.06
